createdAt,value
2022-12-08T00:00:08.781Z,99439.84
2022-12-08T00:02:39.911Z,99433.34
2022-12-08T00:05:09.202Z,99444.69
2022-12-08T00:07:38.919Z,99453.06
2022-12-08T00:10:39.583Z,99441.72
2022-12-08T00:12:55.494Z,99442.25
2022-12-08T00:15:23.109Z,99447.09
2022-12-08T00:17:50.854Z,99448.56
2022-12-08T00:20:18.782Z,99436.53
2022-12-08T00:22:46.400Z,99444.66
2022-12-08T00:25:14.945Z,99438.69
2022-12-08T00:27:43.091Z,99439.16
2022-12-08T00:30:11.311Z,99439.47
2022-12-08T00:32:38.933Z,99434.56
2022-12-08T00:35:07.906Z,99436.53
2022-12-08T00:37:35.633Z,99448.72
2022-12-08T00:40:05.874Z,99444.00
2022-12-08T00:42:34.276Z,99442.88
2022-12-08T00:45:01.843Z,99449.19
2022-12-08T00:47:30.197Z,99447.38
2022-12-08T00:49:58.248Z,99443.00
2022-12-08T00:52:26.249Z,99445.97
2022-12-08T00:54:53.871Z,99453.88
2022-12-08T00:57:22.662Z,99450.81
2022-12-08T00:59:50.384Z,99452.28
2022-12-08T01:02:18.048Z,99452.75
2022-12-08T01:04:46.142Z,99445.88
2022-12-08T01:07:13.679Z,99447.09
2022-12-08T01:09:41.373Z,99449.84
2022-12-08T01:12:09.741Z,99442.06
2022-12-08T01:14:37.600Z,99437.00
2022-12-08T01:17:05.158Z,99441.38
2022-12-08T01:19:33.169Z,99439.31
2022-12-08T01:22:00.836Z,99439.88
2022-12-08T01:24:28.670Z,99448.38
2022-12-08T01:26:56.766Z,99437.72
2022-12-08T01:29:24.584Z,99441.03
2022-12-08T01:31:52.279Z,99443.53
2022-12-08T01:34:20.160Z,99435.84
2022-12-08T01:36:47.958Z,99445.94
2022-12-08T01:39:17.817Z,99443.31
2022-12-08T01:41:46.752Z,99441.69
2022-12-08T01:44:14.224Z,99437.94
2022-12-08T01:46:43.410Z,99433.34
2022-12-08T01:49:18.509Z,99428.87
2022-12-08T01:52:11.098Z,99419.81
2022-12-08T01:55:02.749Z,99424.63
2022-12-08T01:57:56.437Z,99416.59
2022-12-08T02:00:24.680Z,99415.44
2022-12-08T02:02:53.909Z,99414.53
2022-12-08T02:05:25.025Z,99417.72
2022-12-08T02:07:53.531Z,99420.03
2022-12-08T02:10:22.514Z,99414.06
2022-12-08T02:12:52.102Z,99413.44
2022-12-08T02:15:24.913Z,99406.63
2022-12-08T02:18:16.241Z,99411.09
2022-12-08T02:20:55.019Z,99403.19
2022-12-08T02:23:51.920Z,99400.88
2022-12-08T02:26:31.629Z,99407.28
2022-12-08T02:29:34.283Z,99409.81
2022-12-08T02:32:57.376Z,99411.84
2022-12-08T02:35:27.866Z,99401.75
2022-12-08T02:38:14.402Z,99396.00
2022-12-08T02:40:59.486Z,99404.75
2022-12-08T02:43:31.971Z,99394.09
2022-12-08T02:46:02.852Z,99394.31
2022-12-08T02:48:32.921Z,99393.16
2022-12-08T02:51:00.627Z,99386.84
2022-12-08T02:53:30.581Z,99381.31
2022-12-08T02:56:28.839Z,99380.16
2022-12-08T02:59:00.599Z,99375.78
2022-12-08T03:01:31.513Z,99374.25
2022-12-08T03:04:08.458Z,99362.06
2022-12-08T03:06:50.573Z,99372.62
2022-12-08T03:09:18.082Z,99372.22
2022-12-08T03:11:56.804Z,99368.75
2022-12-08T03:14:24.983Z,99362.00
2022-12-08T03:16:55.581Z,99372.09
2022-12-08T03:19:25.803Z,99367.75
2022-12-08T03:21:56.043Z,99372.78
2022-12-08T03:24:23.673Z,99375.84
2022-12-08T03:26:51.276Z,99379.16
2022-12-08T03:29:19.399Z,99386.47
2022-12-08T03:31:52.345Z,99381.88
2022-12-08T03:34:22.459Z,99389.16
2022-12-08T03:36:50.097Z,99387.66
2022-12-08T03:39:18.302Z,99384.16
2022-12-08T03:41:47.497Z,99386.16
2022-12-08T03:44:15.090Z,99378.38
2022-12-08T03:46:42.708Z,99373.88
2022-12-08T03:49:10.747Z,99381.69
2022-12-08T03:51:38.420Z,99383.28
2022-12-08T03:54:06.075Z,99375.50
2022-12-08T03:56:37.064Z,99376.94
2022-12-08T03:59:05.699Z,99370.63
2022-12-08T04:01:33.915Z,99369.34
2022-12-08T04:04:02.082Z,99366.31
2022-12-08T04:06:29.693Z,99368.66
2022-12-08T04:08:57.419Z,99364.19
2022-12-08T04:11:25.555Z,99370.75
2022-12-08T04:13:53.283Z,99366.03
2022-12-08T04:16:23.328Z,99363.72
2022-12-08T04:18:51.613Z,99369.06
2022-12-08T04:21:19.511Z,99367.09
2022-12-08T04:23:47.279Z,99363.00
2022-12-08T04:26:15.688Z,99357.34
2022-12-08T04:28:43.837Z,99361.13
2022-12-08T04:31:11.565Z,99364.47
2022-12-08T04:33:39.548Z,99361.47
2022-12-08T04:36:07.912Z,99364.72
2022-12-08T04:38:35.530Z,99352.13
2022-12-08T04:41:03.698Z,99356.47
2022-12-08T04:43:31.255Z,99350.69
2022-12-08T04:45:58.885Z,99359.44
2022-12-08T04:48:27.153Z,99356.28
2022-12-08T04:50:54.725Z,99354.22
2022-12-08T04:53:22.361Z,99351.75
2022-12-08T04:55:50.414Z,99351.88
2022-12-08T04:58:19.203Z,99349.53
2022-12-08T05:00:47.315Z,99350.12
2022-12-08T05:03:15.819Z,99346.09
2022-12-08T05:05:43.910Z,99352.13
2022-12-08T05:08:11.880Z,99351.19
2022-12-08T05:10:39.965Z,99352.00
2022-12-08T05:13:07.592Z,99351.13
2022-12-08T05:15:35.268Z,99348.34
2022-12-08T05:18:05.509Z,99351.50
2022-12-08T05:20:33.871Z,99348.00
2022-12-08T05:23:01.610Z,99347.13
2022-12-08T05:25:29.667Z,99354.09
2022-12-08T05:28:17.651Z,99360.28
2022-12-08T05:30:45.193Z,99362.59
2022-12-08T05:33:12.977Z,99361.06
2022-12-08T05:35:40.587Z,99357.75
2022-12-08T05:38:08.855Z,99356.19
2022-12-08T05:40:39.863Z,99354.78
2022-12-08T05:43:07.678Z,99346.13
2022-12-08T05:45:35.593Z,99344.78
2022-12-08T05:48:03.594Z,99348.41
2022-12-08T05:50:31.154Z,99339.50
2022-12-08T05:52:59.110Z,99332.59
2022-12-08T05:55:26.803Z,99329.69
2022-12-08T05:57:54.370Z,99336.03
2022-12-08T06:00:22.324Z,99329.00
2022-12-08T06:02:50.258Z,99328.19
2022-12-08T06:05:17.982Z,99325.91
2022-12-08T06:07:46.303Z,99336.50
2022-12-08T06:10:14.247Z,99344.94
2022-12-08T06:12:41.858Z,99345.37
2022-12-08T06:15:09.821Z,99347.41
2022-12-08T06:17:40.511Z,99349.19
2022-12-08T06:20:08.222Z,99347.34
2022-12-08T06:22:36.780Z,99346.06
2022-12-08T06:25:09.546Z,99352.94
2022-12-08T06:27:37.692Z,99354.63
2022-12-08T06:30:07.071Z,99358.75
2022-12-08T06:32:34.921Z,99355.03
2022-12-08T06:35:02.629Z,99350.91
2022-12-08T06:37:30.459Z,99357.41
2022-12-08T06:39:58.237Z,99353.16
2022-12-08T06:42:25.962Z,99358.03
2022-12-08T06:44:53.836Z,99361.53
2022-12-08T06:47:26.034Z,99363.13
2022-12-08T06:49:54.982Z,99359.94
2022-12-08T06:52:22.634Z,99361.13
2022-12-08T06:54:50.388Z,99370.44
2022-12-08T06:57:18.295Z,99366.78
2022-12-08T06:59:45.921Z,99361.44
2022-12-08T07:02:13.978Z,99353.84
2022-12-08T07:04:41.923Z,99361.78
2022-12-08T07:07:09.939Z,99367.09
2022-12-08T07:09:37.568Z,99370.97
2022-12-08T07:12:05.846Z,99364.62
2022-12-08T07:14:33.540Z,99375.53
2022-12-08T07:17:01.146Z,99367.34
2022-12-08T07:19:29.459Z,99371.38
2022-12-08T07:21:57.138Z,99368.84
2022-12-08T07:24:24.732Z,99370.44
2022-12-08T07:26:53.130Z,99373.44
2022-12-08T07:29:26.034Z,99370.00
2022-12-08T07:31:54.309Z,99372.69
2022-12-08T07:34:21.942Z,99369.66
2022-12-08T07:36:49.519Z,99366.31
2022-12-08T07:39:17.453Z,99365.94
2022-12-08T07:41:45.034Z,99361.69
2022-12-08T07:44:12.810Z,99364.81
2022-12-08T07:46:40.797Z,99361.78
2022-12-08T07:49:08.485Z,99370.28
2022-12-08T07:51:36.223Z,99360.31
2022-12-08T07:54:04.150Z,99360.09
2022-12-08T07:56:31.882Z,99358.91
2022-12-08T07:59:01.163Z,99364.72
2022-12-08T08:01:31.462Z,99354.22
2022-12-08T08:04:01.677Z,99364.72
2022-12-08T08:06:29.521Z,99359.47
2022-12-08T08:08:57.345Z,99365.56
2022-12-08T08:11:25.486Z,99355.50
2022-12-08T08:13:53.306Z,99357.62
2022-12-08T08:16:21.278Z,99351.44
2022-12-08T08:18:50.327Z,99356.00
2022-12-08T08:24:06.779Z,99360.44
2022-12-08T08:26:34.640Z,99355.63
2022-12-08T08:29:02.678Z,99348.53
2022-12-08T08:31:30.491Z,99348.47
2022-12-08T08:33:58.223Z,99355.44
2022-12-08T08:36:25.884Z,99356.75
2022-12-08T08:38:54.104Z,99354.28
2022-12-08T08:41:22.694Z,99361.75
2022-12-08T08:43:57.722Z,99363.50
2022-12-08T08:46:25.711Z,99359.47
2022-12-08T08:48:53.537Z,99349.66
2022-12-08T08:51:21.317Z,99347.47
2022-12-08T08:54:25.250Z,99348.84
2022-12-08T08:56:52.958Z,99352.69
2022-12-08T08:59:20.943Z,99346.59
2022-12-08T09:01:48.836Z,99344.72
2022-12-08T09:04:16.789Z,99346.41
2022-12-08T09:06:44.694Z,99343.16
2022-12-08T09:09:16.878Z,99342.09
2022-12-08T09:11:45.401Z,99338.87
2022-12-08T09:14:19.057Z,99334.94
2022-12-08T09:16:47.310Z,99323.66
2022-12-08T09:19:15.156Z,99326.28
2022-12-08T09:21:44.311Z,99322.91
2022-12-08T09:24:13.905Z,99324.50
2022-12-08T09:26:42.735Z,99324.13
2022-12-08T09:29:11.368Z,99321.75
2022-12-08T09:31:39.370Z,99313.53
2022-12-08T09:34:07.544Z,99308.72
2022-12-08T09:36:35.355Z,99307.34
2022-12-08T09:39:03.859Z,99307.13
2022-12-08T09:41:48.289Z,99309.31
2022-12-08T09:44:35.774Z,99315.13
2022-12-08T09:47:06.698Z,99307.16
2022-12-08T09:49:41.173Z,99296.03
2022-12-08T09:52:50.156Z,99279.44
2022-12-08T09:55:24.838Z,99279.19
2022-12-08T09:58:00.977Z,99274.88
2022-12-08T10:00:30.972Z,99307.84
2022-12-08T10:02:59.492Z,99303.44
2022-12-08T10:05:28.380Z,99289.00
2022-12-08T10:08:08.554Z,99285.81
2022-12-08T10:10:42.964Z,99282.88
2022-12-08T10:13:38.017Z,99279.81
2022-12-08T10:16:30.904Z,99257.19
2022-12-08T10:19:16.042Z,99269.97
2022-12-08T10:21:44.285Z,99289.09
2022-12-08T10:24:34.947Z,99296.00
2022-12-08T10:27:03.550Z,99282.06
2022-12-08T10:29:31.191Z,99286.06
2022-12-08T10:31:59.682Z,99281.84
2022-12-08T10:34:27.791Z,99282.34
2022-12-08T10:36:57.746Z,99277.81
2022-12-08T10:39:41.839Z,99261.56
2022-12-08T10:42:18.857Z,99263.75
2022-12-08T10:44:59.345Z,99264.53
2022-12-08T10:47:28.249Z,99254.19
2022-12-08T10:50:26.884Z,99253.69
2022-12-08T10:53:01.039Z,99255.78
2022-12-08T10:55:29.736Z,99252.06
2022-12-08T10:57:57.681Z,99245.16
2022-12-08T11:00:27.052Z,99249.59
2022-12-08T11:03:00.683Z,99238.50
2022-12-08T11:05:33.603Z,99241.66
2022-12-08T11:08:04.767Z,99238.47
2022-12-08T11:10:37.907Z,99237.44
2022-12-08T11:13:07.170Z,99230.22
2022-12-08T11:15:38.316Z,99235.31
2022-12-08T11:18:22.427Z,99234.50
2022-12-08T11:21:06.518Z,99220.66
2022-12-08T11:23:36.454Z,99220.12
2022-12-08T11:26:28.342Z,99213.75
2022-12-08T11:28:57.044Z,99203.41
2022-12-08T11:31:29.601Z,99206.31
2022-12-08T11:33:57.502Z,99211.09
2022-12-08T11:36:27.501Z,99199.38
2022-12-08T11:39:01.122Z,99187.16
2022-12-08T11:41:37.697Z,99169.34
2022-12-08T11:44:22.266Z,99156.31
2022-12-08T11:46:55.406Z,99144.62
2022-12-08T11:49:29.200Z,99133.44
2022-12-08T11:52:06.081Z,99135.03
2022-12-08T11:55:06.886Z,99127.06
2022-12-08T11:57:34.862Z,99116.44
2022-12-08T12:00:03.321Z,99114.84
2022-12-08T12:02:45.882Z,99111.13
2022-12-08T12:08:44.369Z,99111.63
2022-12-08T12:11:33.669Z,99102.34
2022-12-08T12:14:15.503Z,99101.28
2022-12-08T12:17:02.244Z,99099.69
2022-12-08T12:19:40.842Z,99101.78
2022-12-08T12:22:15.467Z,99098.09
2022-12-08T12:24:48.463Z,99097.03
2022-12-08T12:27:16.476Z,99099.16
2022-12-08T12:29:52.225Z,99108.97
2022-12-08T12:32:23.576Z,99104.19
2022-12-08T12:34:54.434Z,99110.31
2022-12-08T12:37:27.768Z,99108.97
2022-12-08T12:39:59.789Z,99101.25
2022-12-08T12:42:48.884Z,99108.44
2022-12-08T12:45:16.734Z,99113.50
2022-12-08T12:47:57.167Z,99112.72
2022-12-08T12:50:34.161Z,99112.44
2022-12-08T12:53:12.353Z,99113.53
2022-12-08T12:56:01.312Z,99115.63
2022-12-08T12:58:29.408Z,99116.69
2022-12-08T13:01:12.958Z,99115.31
2022-12-08T13:04:05.480Z,99114.84
2022-12-08T13:06:45.873Z,99109.50
2022-12-08T13:09:24.646Z,99101.03
2022-12-08T13:11:58.078Z,99093.56
2022-12-08T13:14:38.818Z,99080.00
2022-12-08T13:17:12.515Z,99076.56
2022-12-08T13:19:40.795Z,99075.50
2022-12-08T13:22:47.051Z,99074.44
2022-12-08T13:25:39.839Z,99080.53
2022-12-08T13:28:28.061Z,99074.47
2022-12-08T13:31:03.182Z,99073.91
2022-12-08T13:33:39.562Z,99077.91
2022-12-08T13:36:21.468Z,99079.75
2022-12-08T13:38:54.693Z,99086.13
2022-12-08T13:41:32.717Z,99085.34
2022-12-08T13:45:18.085Z,99087.19
2022-12-08T13:47:31.660Z,99080.56
2022-12-08T13:59:07.930Z,99088.22
2022-12-08T14:01:44.573Z,99086.37
2022-12-08T14:07:04.605Z,99072.25
2022-12-08T14:09:37.750Z,99092.41
2022-12-08T14:12:20.718Z,99087.16
2022-12-08T14:15:02.958Z,99078.91
2022-12-08T14:17:32.618Z,99073.28
2022-12-08T14:20:31.192Z,99070.84
2022-12-08T14:22:59.140Z,99068.19
2022-12-08T14:25:31.444Z,99068.47
2022-12-08T14:28:00.550Z,99079.13
2022-12-08T14:30:31.955Z,99077.19
2022-12-08T14:33:01.326Z,99064.22
2022-12-08T14:35:37.484Z,99070.03
2022-12-08T14:38:13.485Z,99064.44
2022-12-08T14:41:01.586Z,99066.84
2022-12-08T14:43:30.702Z,99059.44
2022-12-08T14:46:04.402Z,99061.22
2022-12-08T14:48:31.975Z,99058.03
2022-12-08T14:51:19.201Z,99064.19
2022-12-08T14:53:55.669Z,99068.72
2022-12-08T14:56:25.059Z,99066.53
2022-12-08T14:59:32.224Z,99071.59
2022-12-08T15:02:17.090Z,99059.16
2022-12-08T15:04:46.975Z,99057.28
2022-12-08T15:07:26.425Z,99054.91
2022-12-08T15:10:27.727Z,99056.47
2022-12-08T15:13:20.590Z,99054.41
2022-12-08T15:15:57.721Z,99058.88
2022-12-08T15:18:34.763Z,99051.72
2022-12-08T15:21:04.544Z,99056.22
2022-12-08T15:23:44.752Z,99044.81
2022-12-08T15:26:23.452Z,99047.69
2022-12-08T15:28:51.911Z,99039.50
2022-12-08T15:31:19.706Z,99040.56
2022-12-08T15:33:48.276Z,99033.09
2022-12-08T15:36:16.253Z,99042.44
2022-12-08T15:38:43.858Z,99034.19
2022-12-08T15:41:15.356Z,99029.09
2022-12-08T15:43:43.359Z,99027.84
2022-12-08T15:46:11.896Z,99025.72
2022-12-08T15:48:39.664Z,99014.78
2022-12-08T15:51:08.914Z,99018.28
2022-12-08T15:53:36.483Z,99018.28
2022-12-08T15:58:57.391Z,99019.84
2022-12-08T16:01:26.729Z,99020.41
2022-12-08T16:04:47.761Z,99031.03
2022-12-08T16:09:50.347Z,99033.97
2022-12-08T16:12:35.478Z,99051.78
2022-12-08T16:18:03.619Z,99068.00
2022-12-08T16:21:05.437Z,99046.44
2022-12-08T16:23:41.733Z,99045.91
2022-12-08T16:26:44.151Z,99033.41
2022-12-08T16:29:05.639Z,99019.59
2022-12-08T16:31:33.796Z,99024.41
2022-12-08T16:34:01.605Z,99021.75
2022-12-08T16:36:29.858Z,99023.63
2022-12-08T16:38:57.756Z,99018.03
2022-12-08T16:41:25.732Z,99019.16
2022-12-08T16:43:53.332Z,99021.22
2022-12-08T16:46:21.638Z,99026.53
2022-12-08T16:48:51.708Z,99019.63
2022-12-08T16:51:26.524Z,99036.66
2022-12-08T16:53:55.555Z,99034.75
2022-12-08T16:56:27.514Z,99027.63
2022-12-08T16:58:56.823Z,99027.91
2022-12-08T17:01:24.565Z,99032.94
2022-12-08T17:04:22.571Z,99038.25
2022-12-08T17:06:41.533Z,99033.75
2022-12-08T17:09:09.234Z,99040.59
2022-12-08T17:11:42.873Z,99052.59
2022-12-08T17:14:12.891Z,99040.91
2022-12-08T17:16:41.227Z,99061.66
2022-12-08T17:19:09.620Z,99068.03
2022-12-08T17:21:37.833Z,99066.19
2022-12-08T17:24:09.674Z,99062.72
2022-12-08T17:26:39.938Z,99068.56
2022-12-08T17:29:08.028Z,99061.94
2022-12-08T17:31:35.765Z,99064.84
2022-12-08T17:34:05.834Z,99062.69
2022-12-08T17:36:33.559Z,99055.25
2022-12-08T17:39:03.714Z,99058.69
2022-12-08T17:41:35.545Z,99049.34
2022-12-08T17:44:03.393Z,99049.66
2022-12-08T17:46:31.273Z,99044.03
2022-12-08T17:48:59.186Z,99041.91
2022-12-08T17:51:27.242Z,99042.91
2022-12-08T17:53:55.149Z,99029.97
2022-12-08T17:56:25.050Z,99027.00
2022-12-08T17:58:54.953Z,99028.62
2022-12-08T18:01:24.131Z,99031.31
2022-12-08T18:03:52.426Z,99022.53
2022-12-08T18:06:20.529Z,99012.13
2022-12-08T18:08:48.191Z,99017.47
2022-12-08T18:11:18.922Z,99026.81
2022-12-08T18:13:47.792Z,99019.41
2022-12-08T18:16:16.251Z,99026.25
2022-12-08T18:18:44.290Z,99030.78
2022-12-08T18:21:12.142Z,99038.78
2022-12-08T18:23:41.540Z,99045.44
2022-12-08T18:26:11.769Z,99038.25
2022-12-08T18:28:39.536Z,99032.91
2022-12-08T18:31:09.188Z,99037.97
2022-12-08T18:33:37.814Z,99026.53
2022-12-08T18:36:08.357Z,99021.78
2022-12-08T18:38:36.870Z,99013.25
2022-12-08T18:41:10.535Z,99018.06
2022-12-08T18:43:38.333Z,99015.69
2022-12-08T18:46:09.310Z,99015.69
2022-12-08T18:48:39.251Z,99018.56
2022-12-08T18:51:11.403Z,99030.28
2022-12-08T18:53:39.661Z,99026.25
2022-12-08T18:56:08.237Z,99023.91
2022-12-08T18:58:36.942Z,99023.38
2022-12-08T19:01:05.081Z,99020.41
2022-12-08T19:03:33.916Z,99028.97
2022-12-08T19:06:04.931Z,99027.38
2022-12-08T19:08:33.495Z,99025.19
2022-12-08T19:11:01.464Z,99018.56
2022-12-08T19:13:29.991Z,99026.50
2022-12-08T19:15:58.189Z,99017.66
2022-12-08T19:18:26.088Z,99017.41
2022-12-08T19:20:56.195Z,99004.16
2022-12-08T19:23:24.094Z,99015.28
2022-12-08T19:25:52.250Z,99017.41
2022-12-08T19:28:20.316Z,99021.38
2022-12-08T19:30:48.429Z,99022.19
2022-12-08T19:33:16.587Z,99023.00
2022-12-08T19:35:49.055Z,99016.06
2022-12-08T19:38:20.464Z,99032.72
2022-12-08T19:40:48.302Z,99030.41
2022-12-08T19:43:17.738Z,99032.25
2022-12-08T19:45:46.393Z,99030.16
2022-12-08T19:48:14.466Z,99023.78
2022-12-08T19:50:42.562Z,99033.84
2022-12-08T19:53:13.133Z,99032.00
2022-12-08T19:55:42.275Z,99036.00
2022-12-08T19:58:10.673Z,99030.97
2022-12-08T20:00:42.577Z,99023.72
2022-12-08T20:03:15.035Z,99023.69
2022-12-08T20:05:43.514Z,99028.75
2022-12-08T20:08:12.101Z,99024.00
2022-12-08T20:10:42.746Z,99029.88
2022-12-08T20:13:11.819Z,99021.66
2022-12-08T20:15:40.675Z,99026.44
2022-12-08T20:18:10.655Z,99032.53
2022-12-08T20:20:39.804Z,99028.50
2022-12-08T20:23:08.318Z,99028.56
2022-12-08T20:25:40.898Z,99021.41
2022-12-08T20:28:09.485Z,99025.34
2022-12-08T20:30:41.441Z,99022.62
2022-12-08T20:33:13.261Z,99008.13
2022-12-08T20:35:41.113Z,99009.22
2022-12-08T20:38:09.941Z,99003.13
2022-12-08T20:40:42.224Z,99003.06
2022-12-08T20:43:10.559Z,99006.28
2022-12-08T20:45:38.470Z,99006.28
2022-12-08T20:48:06.476Z,99006.78
2022-12-08T20:50:34.704Z,99008.38
2022-12-08T20:53:02.549Z,99008.13
2022-12-08T20:55:30.632Z,99011.84
2022-12-08T20:57:58.841Z,99007.09
2022-12-08T21:00:26.923Z,99019.03
2022-12-08T21:02:56.760Z,99018.19
2022-12-08T21:05:25.709Z,99012.88
2022-12-08T21:07:53.678Z,99019.38
2022-12-08T21:10:21.603Z,99017.59
2022-12-08T21:12:49.524Z,99021.03
2022-12-08T21:15:17.327Z,99026.34
2022-12-08T21:17:45.258Z,99023.69
2022-12-08T21:20:13.346Z,99026.63
2022-12-08T21:22:40.997Z,99030.84
2022-12-08T21:25:09.180Z,99035.91
2022-12-08T21:27:37.785Z,99021.56
2022-12-08T21:30:08.243Z,99034.06
2022-12-08T21:32:38.233Z,99030.34
2022-12-08T21:35:06.839Z,99035.13
2022-12-08T21:37:34.501Z,99039.63
2022-12-08T21:40:02.560Z,99033.47
2022-12-08T21:42:34.081Z,99031.28
2022-12-08T21:45:02.428Z,99038.19
2022-12-08T21:47:31.212Z,99030.41
2022-12-08T21:49:59.122Z,99024.94
2022-12-08T21:52:26.951Z,99015.28
2022-12-08T21:54:55.160Z,99013.31
2022-12-08T21:57:23.070Z,98992.63
2022-12-08T21:59:50.932Z,98990.50
2022-12-08T22:02:22.337Z,98987.59
2022-12-08T22:04:51.174Z,98981.47
2022-12-08T22:07:21.093Z,98988.63
2022-12-08T22:09:49.179Z,98987.81
2022-12-08T22:12:17.578Z,98996.84
2022-12-08T22:14:45.376Z,98981.44
2022-12-08T22:17:13.037Z,98983.84
2022-12-08T22:19:41.393Z,98989.41
2022-12-08T22:22:09.117Z,98988.09
2022-12-08T22:24:36.813Z,98995.28
2022-12-08T22:27:04.785Z,98991.03
2022-12-08T22:29:32.369Z,98988.37
2022-12-08T22:32:00.213Z,98997.94
2022-12-08T22:34:28.360Z,98997.41
2022-12-08T22:36:56.122Z,99000.84
2022-12-08T22:39:23.983Z,99004.84
2022-12-08T22:41:52.012Z,99003.25
2022-12-08T22:44:23.670Z,98998.47
2022-12-08T22:46:51.363Z,99000.56
2022-12-08T22:49:19.318Z,99001.41
2022-12-08T22:51:46.884Z,99001.94
2022-12-08T22:54:14.415Z,99004.28
2022-12-08T22:56:42.345Z,99000.84
2022-12-08T22:59:10.153Z,99005.91
2022-12-08T23:01:37.868Z,99013.62
2022-12-08T23:04:05.979Z,99015.47
2022-12-08T23:06:33.900Z,99013.62
2022-12-08T23:09:02.446Z,99017.56
2022-12-08T23:11:31.350Z,99013.88
2022-12-08T23:13:59.852Z,99008.03
2022-12-08T23:16:28.306Z,99019.47
2022-12-08T23:18:56.707Z,99018.66
2022-12-08T23:21:24.380Z,99021.56
2022-12-08T23:23:52.660Z,99014.12
2022-12-08T23:26:26.196Z,99013.62
2022-12-08T23:28:54.520Z,99018.66
2022-12-08T23:31:23.152Z,99010.94
2022-12-08T23:33:51.562Z,99018.09
2022-12-08T23:36:20.439Z,99012.03
2022-12-08T23:38:49.203Z,99004.84
2022-12-08T23:41:17.822Z,99004.53
2022-12-08T23:43:50.016Z,99000.03
2022-12-08T23:46:21.313Z,99001.91
2022-12-08T23:48:50.526Z,99013.31
2022-12-08T23:51:19.083Z,99006.66
2022-12-08T23:53:46.945Z,99009.34
2022-12-08T23:56:16.887Z,98998.41
2022-12-08T23:58:45.186Z,98989.94
